Time;durP1;ratioP1;P1;durP2;ratioP2;P2;SDS_P1;SDS_P2;PMS_P1;PMS_P2;Temp;Humidity;BMP_temperature;BMP_pressure;BME280_temperature;BME280_humidity;BME280_pressure;Samples;Min_cycle;Max_cycle;Signal;HPM_P1;HPM_P2
2021/05/29 00:02:06;;;;;;;35.17;22.77;;;;;;;24.33;66.19;99895.08;1728673;83;21010;-54
2021/05/29 00:04:32;;;;;;;36.28;24.30;;;;;;;24.32;66.20;99893.47;1728853;83;20956;-55
2021/05/29 00:07:00;;;;;;;35.45;23.25;;;;;;;24.32;66.27;99893.47;1728817;82;21048;-55
2021/05/29 00:09:27;;;;;;;36.05;23.20;;;;;;;24.30;66.12;99901.08;1728824;83;20968;-55
2021/05/29 00:11:55;;;;;;;36.60;24.55;;;;;;;24.29;66.22;99888.03;1728813;82;20968;-54
2021/05/29 00:14:21;;;;;;;40.55;26.30;;;;;;;24.27;66.27;99895.67;1728865;83;21494;-54
2021/05/29 00:16:47;;;;;;;33.67;22.98;;;;;;;24.26;66.29;99891.86;1728836;83;21000;-54
2021/05/29 00:19:14;;;;;;;32.15;22.40;;;;;;;24.26;66.24;99894.58;1728845;83;20973;-54
2021/05/29 00:21:40;;;;;;;34.92;23.20;;;;;;;24.25;66.14;99900.55;1728843;83;21068;-55
2021/05/29 00:24:08;;;;;;;36.88;24.60;;;;;;;24.24;66.10;99903.56;1728845;83;21061;-55
2021/05/29 00:26:34;;;;;;;34.20;23.25;;;;;;;24.23;66.17;99907.36;1728731;82;21009;-54
2021/05/29 00:29:01;;;;;;;36.98;22.75;;;;;;;24.22;66.17;99909.27;1728739;82;21075;-55
2021/05/29 00:31:27;;;;;;;31.68;21.95;;;;;;;24.21;66.28;99904.13;1728802;82;21028;-55
2021/05/29 00:33:54;;;;;;;33.88;23.07;;;;;;;24.19;66.24;99909.83;1728906;83;21058;-55
2021/05/29 00:36:21;;;;;;;31.57;21.50;;;;;;;24.19;66.27;99912.55;1728787;82;21086;-55
2021/05/29 00:38:48;;;;;;;32.05;21.52;;;;;;;24.20;66.23;99910.64;1728730;83;21004;-55
2021/05/29 00:41:16;;;;;;;32.73;23.02;;;;;;;24.18;66.14;99914.17;1728774;82;21497;-54
2021/05/29 00:43:43;;;;;;;37.08;24.18;;;;;;;24.18;66.07;99896.52;1728721;83;20948;-53
2021/05/29 00:46:09;;;;;;;34.08;22.80;;;;;;;24.16;66.15;99894.10;1728850;83;21028;-54
2021/05/29 00:48:37;;;;;;;35.78;23.42;;;;;;;24.16;66.09;99894.64;1728777;83;21176;-54
2021/05/29 00:51:06;;;;;;;30.23;20.02;;;;;;;24.13;66.23;99885.13;1728581;83;20988;-54
2021/05/29 00:53:34;;;;;;;34.85;21.93;;;;;;;24.14;66.14;99882.69;1728844;82;21021;-54
2021/05/29 00:56:03;;;;;;;33.98;21.48;;;;;;;24.14;66.00;99886.77;1728697;81;21067;-53
2021/05/29 00:58:30;;;;;;;36.20;22.98;;;;;;;24.14;66.02;99885.41;1728739;82;21534;-54
2021/05/29 01:00:56;;;;;;;31.25;21.42;;;;;;;24.13;65.94;99882.41;1728910;83;21045;-53
2021/05/29 01:03:23;;;;;;;28.62;20.35;;;;;;;24.14;66.00;99888.66;1728729;83;21552;-54
2021/05/29 01:05:49;;;;;;;31.12;20.70;;;;;;;24.13;65.97;99895.17;1728951;83;21575;-54
2021/05/29 01:08:16;;;;;;;25.77;18.30;;;;;;;24.12;65.94;99901.15;1728706;81;21449;-54
2021/05/29 01:10:43;;;;;;;30.90;19.48;;;;;;;24.12;65.97;99907.94;1728748;83;21466;-54
2021/05/29 01:13:11;;;;;;;29.95;19.77;;;;;;;24.15;65.95;99916.09;1728859;82;21675;-54
2021/05/29 01:15:44;;;;;;;28.30;19.23;;;;;;;24.13;65.84;99928.58;1728757;83;20964;-53
2021/05/29 01:18:11;;;;;;;29.10;20.25;;;;;;;24.12;65.72;99962.25;1728243;83;20985;-55
2021/05/29 01:20:39;;;;;;;27.90;18.60;;;;;;;24.12;65.91;99975.83;1728838;83;20976;-55
2021/05/29 01:23:05;;;;;;;29.55;19.12;;;;;;;24.11;65.95;99956.55;1728842;82;20924;-54
2021/05/29 01:25:37;;;;;;;28.65;17.87;;;;;;;24.11;65.90;99953.83;1728038;82;21100;-55
2021/05/29 01:28:18;;;;;;;29.45;19.00;;;;;;;24.11;65.92;99964.69;1724028;83;21084;-55
2021/05/29 01:30:53;;;;;;;28.70;17.25;;;;;;;24.11;65.91;99944.33;1724345;83;20973;-55
2021/05/29 01:33:23;;;;;;;;;;;;;;;24.11;65.86;99941.61;1726900;83;21137;-55
2021/05/29 01:35:51;;;;;;;29.70;19.42;;;;;;;24.09;65.98;99950.59;1724385;83;20581;-55
2021/05/29 01:38:20;;;;;;;27.98;19.57;;;;;;;24.08;65.93;99942.17;1724358;83;21682;-55
2021/05/29 01:40:47;;;;;;;32.65;20.32;;;;;;;24.07;65.90;99950.04;1724320;83;21001;-55
2021/05/29 01:43:14;;;;;;;31.25;20.25;;;;;;;24.04;65.99;99951.96;1724349;83;21017;-54
2021/05/29 01:45:43;;;;;;;32.42;20.27;;;;;;;24.05;66.00;99954.95;1724359;83;21573;-55
2021/05/29 01:48:10;;;;;;;30.23;19.67;;;;;;;24.05;65.95;99949.52;1724413;83;21664;-55
2021/05/29 01:50:46;;;;;;;31.60;21.40;;;;;;;24.05;65.98;99951.42;1724350;83;21088;-55
2021/05/29 01:53:14;;;;;;;30.40;21.02;;;;;;;24.05;66.02;99952.23;1724482;83;21056;-55
2021/05/29 01:55:43;;;;;;;29.63;20.88;;;;;;;24.05;66.03;99944.62;1724359;83;21094;-55
2021/05/29 01:58:10;;;;;;;26.27;18.50;;;;;;;24.04;66.08;99950.60;1724448;83;21047;-54
2021/05/29 02:00:37;;;;;;;28.45;19.52;;;;;;;24.02;66.06;99945.98;1724376;83;21084;-53
2021/05/29 02:03:04;;;;;;;28.90;20.45;;;;;;;24.04;66.06;99944.35;1724437;83;21115;-54
2021/05/29 02:05:32;;;;;;;27.82;19.60;;;;;;;24.05;66.09;99940.02;1724327;83;21083;-54
2021/05/29 02:08:00;;;;;;;29.80;20.48;;;;;;;24.04;65.91;99935.67;1724446;83;21053;-53
2021/05/29 02:10:29;;;;;;;26.70;19.05;;;;;;;24.04;65.96;99935.67;1724364;83;21020;-53
2021/05/29 02:12:59;;;;;;;28.07;19.07;;;;;;;24.04;65.85;99939.73;1724452;83;21005;-55
2021/05/29 02:15:30;;;;;;;25.75;18.30;;;;;;;24.04;65.78;99934.84;1724313;83;21064;-55
2021/05/29 02:18:01;;;;;;;28.55;19.50;;;;;;;24.04;65.58;99934.84;1722961;81;20961;-55
2021/05/29 02:20:45;;;;;;;25.27;18.07;;;;;;;24.05;65.62;99933.77;1724325;83;20969;-54
2021/05/29 02:23:16;;;;;;;26.50;19.95;;;;;;;24.07;65.55;99931.03;1724318;83;21009;-54
2021/05/29 02:25:43;;;;;;;31.48;21.62;;;;;;;24.07;65.52;99932.39;1723897;82;21000;-55
2021/05/29 02:28:09;;;;;;;28.15;19.80;;;;;;;24.06;65.41;99934.83;1724303;83;21091;-54
2021/05/29 02:30:36;;;;;;;24.40;17.50;;;;;;;24.06;65.38;99940.26;1724254;83;20977;-54
2021/05/29 02:33:03;;;;;;;27.90;18.02;;;;;;;24.06;65.41;99934.83;1724330;83;21037;-54
2021/05/29 02:35:30;;;;;;;26.65;17.62;;;;;;;24.06;65.51;99944.33;1724366;83;21083;-55
2021/05/29 02:37:56;;;;;;;27.40;18.98;;;;;;;24.06;65.42;99937.55;1724377;83;21466;-55
2021/05/29 02:40:23;;;;;;;29.87;20.60;;;;;;;24.07;65.25;99944.61;1724195;83;22182;-55
2021/05/29 02:42:50;;;;;;;31.20;20.27;;;;;;;24.07;65.24;99943.80;1724289;83;21503;-54
2021/05/29 02:45:16;;;;;;;31.97;20.92;;;;;;;24.08;65.30;99935.92;1724302;83;20997;-55
2021/05/29 02:47:43;;;;;;;27.20;19.30;;;;;;;24.07;65.37;99935.10;1724266;83;20988;-55
2021/05/29 02:50:13;;;;;;;31.02;21.77;;;;;;;24.08;65.19;99944.06;1724378;83;21060;-55
2021/05/29 02:52:40;;;;;;;31.37;20.17;;;;;;;24.08;65.33;99946.78;1724217;83;21063;-54
2021/05/29 02:55:09;;;;;;;34.83;24.18;;;;;;;24.07;65.40;99945.97;1724273;83;20957;-55
2021/05/29 02:57:36;;;;;;;34.33;22.32;;;;;;;24.08;65.46;99943.52;1724407;83;20857;-55
2021/05/29 03:00:07;;;;;;;37.40;23.85;;;;;;;24.10;65.36;99945.41;1724389;83;20976;-55
2021/05/29 03:02:33;;;;;;;34.50;23.50;;;;;;;24.11;65.24;99944.86;1724357;83;21080;-54
2021/05/29 03:05:00;;;;;;;38.02;24.95;;;;;;;24.10;65.23;99939.97;1724285;83;21108;-54
2021/05/29 03:07:27;;;;;;;39.50;25.80;;;;;;;24.10;65.22;99939.97;1724359;83;21154;-54
2021/05/29 03:09:55;;;;;;;37.83;25.43;;;;;;;24.10;65.18;99934.55;1724490;83;21569;-55
2021/05/29 03:12:23;;;;;;;43.20;27.13;;;;;;;24.10;65.20;99927.75;1700707;83;21001;-54
2021/05/29 03:14:51;;;;;;;35.70;23.62;;;;;;;24.08;65.15;99927.23;1700301;83;21045;-53
2021/05/29 03:17:18;;;;;;;36.63;23.95;;;;;;;24.10;65.11;99925.03;1724569;83;21089;-53
2021/05/29 03:19:45;;;;;;;37.42;25.75;;;;;;;24.11;65.13;99925.31;1698814;83;21079;-53
2021/05/29 03:22:12;;;;;;;39.65;27.48;;;;;;;24.12;65.07;99919.34;1724508;83;21581;-53
2021/05/29 03:24:39;;;;;;;37.38;25.80;;;;;;;24.11;64.98;99913.64;1724340;83;21556;-53
2021/05/29 03:27:06;;;;;;;37.50;25.92;;;;;;;24.12;64.88;99919.34;1724446;82;20961;-54
2021/05/29 03:29:33;;;;;;;40.50;27.42;;;;;;;24.12;64.88;99913.37;1724256;83;21152;-54
2021/05/29 03:32:00;;;;;;;40.52;27.27;;;;;;;24.13;65.00;99911.47;1724500;83;21036;-54
2021/05/29 03:34:26;;;;;;;39.75;27.22;;;;;;;24.13;64.91;99910.11;1724402;83;21025;-53
2021/05/29 03:36:52;;;;;;;38.17;26.25;;;;;;;24.15;64.96;99909.30;1724503;83;21063;-53
2021/05/29 03:39:21;;;;;;;38.80;26.33;;;;;;;24.17;64.85;99907.14;1724386;83;21036;-53
2021/05/29 03:41:48;;;;;;;38.45;27.07;;;;;;;24.17;64.78;99908.50;1724520;83;21080;-53
2021/05/29 03:44:14;;;;;;;39.38;27.07;;;;;;;24.19;64.65;99897.61;1724467;83;21525;-53
2021/05/29 03:46:43;;;;;;;38.23;27.80;;;;;;;24.20;64.54;99895.70;1724402;83;21001;-53
2021/05/29 03:49:09;;;;;;;39.30;27.82;;;;;;;24.20;64.51;99891.09;1724469;83;21068;-53
2021/05/29 03:51:36;;;;;;;38.05;27.22;;;;;;;24.19;64.41;99894.89;1724495;83;20965;-53
2021/05/29 03:54:03;;;;;;;40.80;28.35;;;;;;;24.18;64.50;99891.91;1724391;83;21089;-53
2021/05/29 03:56:29;;;;;;;36.38;25.82;;;;;;;24.20;64.62;99896.52;1724397;83;21119;-53
2021/05/29 03:58:56;;;;;;;34.65;25.17;;;;;;;24.21;64.67;99888.63;1724520;83;21020;-54
2021/05/29 04:01:22;;;;;;;35.98;26.65;;;;;;;24.24;64.65;99892.16;1724495;83;21083;-53
2021/05/29 04:03:49;;;;;;;34.43;24.47;;;;;;;24.24;64.52;99881.30;1724441;83;21032;-53
2021/05/29 04:06:16;;;;;;;38.10;26.77;;;;;;;24.26;64.54;99879.64;1724484;83;21108;-54
2021/05/29 04:08:43;;;;;;;33.67;24.55;;;;;;;24.26;64.59;99884.53;1724442;83;21048;-55
2021/05/29 04:11:10;;;;;;;38.55;27.67;;;;;;;24.29;64.51;99879.07;1724462;83;21580;-54
2021/05/29 04:13:36;;;;;;;34.30;26.07;;;;;;;24.29;64.50;99882.60;1724451;83;21088;-55
2021/05/29 04:16:04;;;;;;;34.33;25.12;;;;;;;24.32;64.43;99880.67;1724500;83;21092;-54
2021/05/29 04:18:30;;;;;;;35.17;25.60;;;;;;;24.33;64.44;99874.16;1724267;83;21099;-54
2021/05/29 04:20:57;;;;;;;30.05;24.12;;;;;;;24.37;64.40;99876.58;1724342;83;21092;-54
2021/05/29 04:23:23;;;;;;;31.05;24.25;;;;;;;24.40;64.38;99878.73;1724625;83;21075;-55
2021/05/29 04:25:50;;;;;;;31.00;24.10;;;;;;;24.41;64.35;99873.56;1724531;83;21586;-55
2021/05/29 04:28:16;;;;;;;32.00;24.12;;;;;;;24.44;64.20;99874.89;1732491;82;21067;-53
2021/05/29 04:30:43;;;;;;;33.75;24.07;;;;;;;24.44;64.13;99868.92;1732743;82;22460;-54
2021/05/29 04:33:09;;;;;;;34.43;26.85;;;;;;;24.45;64.05;99877.89;1720460;82;20978;-53
2021/05/29 04:35:38;;;;;;;31.10;24.25;;;;;;;24.45;63.98;99870.55;1722575;83;21392;-53
2021/05/29 04:38:04;;;;;;;33.63;24.65;;;;;;;24.47;63.90;99874.36;1722654;83;21072;-53
2021/05/29 04:40:30;;;;;;;30.27;24.43;;;;;;;24.51;63.82;99880.03;1661232;86;21109;-53
2021/05/29 04:43:00;;;;;;;29.27;23.27;;;;;;;24.55;63.65;99885.95;1671229;85;21068;-54
2021/05/29 04:45:25;;;;;;;36.45;25.82;;;;;;;24.57;63.53;99889.22;1671138;85;21151;-54
2021/05/29 04:47:53;;;;;;;29.12;22.60;;;;;;;24.61;63.36;99884.84;1684295;85;22404;-55
2021/05/29 04:50:21;;;;;;;30.50;24.23;;;;;;;24.63;63.23;99881.83;1675945;85;21558;-54
2021/05/29 04:52:47;;;;;;;27.40;21.93;;;;;;;24.65;63.22;99875.58;1667267;86;21458;-54
2021/05/29 04:55:16;;;;;;;30.45;22.85;;;;;;;24.68;63.06;99880.44;1674075;85;21009;-54
2021/05/29 04:57:43;;;;;;;27.00;22.00;;;;;;;24.71;62.89;99873.08;1667022;86;21163;-55
2021/05/29 05:00:14;;;;;;;27.10;21.00;;;;;;;24.73;62.68;99873.62;1667130;86;21631;-54
2021/05/29 05:02:41;;;;;;;23.95;19.82;;;;;;;24.75;62.59;99876.30;1667167;84;21142;-54
2021/05/29 05:05:08;;;;;;;25.32;22.07;;;;;;;24.77;62.46;99878.75;1667130;84;21505;-54
2021/05/29 05:07:36;;;;;;;28.60;21.62;;;;;;;24.79;62.32;99881.98;1668833;85;21049;-55
2021/05/29 05:10:05;;;;;;;27.82;20.60;;;;;;;24.79;62.26;99880.08;1666986;84;21107;-54
2021/05/29 05:12:32;;;;;;;23.45;19.87;;;;;;;24.80;62.22;99878.99;1667036;86;21028;-55
2021/05/29 05:14:58;;;;;;;25.62;21.00;;;;;;;24.84;62.20;99886.06;1667108;86;20928;-55
2021/05/29 05:17:25;;;;;;;25.62;19.77;;;;;;;24.84;62.17;99883.34;1667045;86;21003;-55
2021/05/29 05:19:52;;;;;;;26.93;21.02;;;;;;;24.85;62.08;99890.41;1667143;86;21034;-55
2021/05/29 05:22:20;;;;;;;24.27;19.17;;;;;;;24.82;62.10;99886.84;1673808;85;21057;-56
2021/05/29 05:24:47;;;;;;;23.73;19.15;;;;;;;24.81;62.12;99900.98;1658885;85;21028;-56
2021/05/29 05:27:13;;;;;;;24.43;19.37;;;;;;;24.80;62.21;99905.36;1678738;85;21098;-56
2021/05/29 05:29:40;;;;;;;22.85;18.85;;;;;;;24.79;62.40;99909.16;1656047;86;21074;-56
2021/05/29 05:32:08;;;;;;;20.65;18.45;;;;;;;24.77;62.38;99910.02;1655200;86;21123;-56
2021/05/29 05:34:34;;;;;;;23.00;18.65;;;;;;;24.74;62.44;99908.65;1655975;86;21082;-55
2021/05/29 05:37:01;;;;;;;23.18;19.70;;;;;;;24.73;62.46;99906.23;1655957;86;21102;-55
2021/05/29 05:39:27;;;;;;;22.58;17.95;;;;;;;24.72;62.50;99910.04;1655964;86;21729;-56
2021/05/29 05:41:54;;;;;;;25.05;19.80;;;;;;;24.71;62.54;99914.66;1656011;86;21574;-56
2021/05/29 05:44:21;;;;;;;23.73;19.27;;;;;;;24.69;62.58;99910.06;1655431;86;21675;-56
2021/05/29 05:46:47;;;;;;;23.52;19.70;;;;;;;24.69;62.54;99911.97;1656020;86;20903;-56
2021/05/29 05:49:13;;;;;;;22.67;19.70;;;;;;;24.69;62.49;99914.69;1655323;86;21086;-56
2021/05/29 05:51:40;;;;;;;22.87;19.52;;;;;;;24.67;62.46;99915.50;1656000;86;21062;-56
2021/05/29 05:54:06;;;;;;;26.27;21.77;;;;;;;24.67;62.43;99921.75;1656018;86;21159;-56
2021/05/29 05:56:32;;;;;;;28.50;23.45;;;;;;;24.66;62.49;99921.48;1655956;86;21106;-55
2021/05/29 05:59:00;;;;;;;23.87;20.32;;;;;;;24.66;62.51;99926.91;1655959;86;21062;-55
2021/05/29 06:01:27;;;;;;;25.88;21.45;;;;;;;24.67;62.47;99925.83;1654983;86;21141;-55
2021/05/29 06:03:54;;;;;;;24.60;20.55;;;;;;;24.68;62.42;99928.82;1660077;86;21623;-56
2021/05/29 06:06:20;;;;;;;25.85;20.50;;;;;;;24.71;62.43;99930.16;1661201;84;21599;-56
2021/05/29 06:08:47;;;;;;;23.05;19.90;;;;;;;24.76;62.35;99932.84;1664920;86;23215;-56
2021/05/29 06:11:14;;;;;;;23.70;19.90;;;;;;;24.78;62.27;99930.64;1663897;86;21101;-56
2021/05/29 06:19:13;;;;;;;18.87;16.27;;;;;;;24.86;62.14;99940.95;1654051;86;21619;-56
2021/05/29 06:21:48;;;;;;;24.90;17.12;;;;;;;24.89;62.08;99941.19;1646044;86;21100;-56
2021/05/29 06:24:20;;;;;;;21.12;17.52;;;;;;;24.90;62.04;99944.18;1634913;86;21030;-57
2021/05/29 06:26:48;;;;;;;24.43;21.25;;;;;;;24.92;61.73;99950.70;1662714;84;21519;-57
2021/05/29 06:29:15;;;;;;;24.15;20.48;;;;;;;24.94;61.70;99949.86;1657964;85;21048;-58
2021/05/29 06:31:43;;;;;;;21.57;18.30;;;;;;;24.94;61.54;99948.50;1658974;86;21101;-58
2021/05/29 06:34:09;;;;;;;20.80;17.87;;;;;;;24.94;61.49;99948.50;1659927;86;21002;-58
2021/05/29 06:36:35;;;;;;;20.55;16.70;;;;;;;24.96;61.51;99951.77;1663149;86;21570;-58
2021/05/29 06:39:02;;;;;;;17.57;15.65;;;;;;;24.98;61.65;99953.64;1665279;86;21576;-58
2021/05/29 06:41:28;;;;;;;23.32;18.02;;;;;;;25.01;61.61;99951.70;1665271;85;20967;-59
2021/05/29 06:43:56;;;;;;;19.27;16.45;;;;;;;25.04;61.66;99944.91;1665259;86;20993;-57
2021/05/29 06:46:22;;;;;;;21.10;17.87;;;;;;;25.07;61.78;99952.49;1663200;86;21119;-58
2021/05/29 06:48:52;;;;;;;22.70;19.60;;;;;;;25.10;61.89;99948.66;1659864;86;20980;-59
2021/05/29 06:51:30;;;;;;;20.52;17.62;;;;;;;25.15;61.71;99943.15;1660012;86;20968;-59
2021/05/29 06:53:49;;;;;;;20.17;16.95;;;;;;;25.25;61.90;99933.56;1658293;86;21011;-59
2021/05/29 06:59:02;;;;;;;15.15;13.45;;;;;;;25.42;61.86;99939.91;1660077;86;21073;-62
2021/05/29 07:01:29;;;;;;;16.27;14.05;;;;;;;25.52;62.05;99945.30;1660011;86;21004;-61
2021/05/29 07:03:56;;;;;;;16.15;13.32;;;;;;;25.59;61.97;99944.41;1662080;85;20971;-60
2021/05/29 07:06:24;;;;;;;15.43;13.32;;;;;;;25.66;61.78;99950.32;1669516;86;21527;-62
2021/05/29 07:08:51;;;;;;;14.20;12.70;;;;;;;25.72;61.56;99946.44;1665604;84;21099;-61
2021/05/29 07:11:18;;;;;;;15.75;12.78;;;;;;;25.76;61.48;99943.94;1654857;85;21178;-60
2021/05/29 07:13:47;;;;;;;13.83;11.90;;;;;;;25.77;61.49;99942.84;1658788;86;21077;-61
2021/05/29 07:16:15;;;;;;;14.28;12.23;;;;;;;25.78;61.35;99949.38;1658859;86;21086;-61
2021/05/29 07:18:48;;;;;;;14.50;11.60;;;;;;;25.78;61.43;99952.64;1664868;85;21117;-60
2021/05/29 07:21:17;;;;;;;12.93;11.60;;;;;;;25.75;61.42;99957.31;1664641;85;21086;-62
2021/05/29 07:23:45;;;;;;;13.88;12.28;;;;;;;25.71;61.42;99962.53;1661492;85;21028;-60
2021/05/29 07:26:13;;;;;;;13.00;11.70;;;;;;;25.67;61.54;99951.95;1656989;85;21080;-60
2021/05/29 07:28:39;;;;;;;11.85;10.65;;;;;;;25.62;61.57;99957.44;1658611;84;21020;-59
2021/05/29 07:31:05;;;;;;;11.08;9.98;;;;;;;25.58;61.58;99960.47;1659537;86;21019;-59
2021/05/29 07:33:32;;;;;;;10.70;9.60;;;;;;;25.53;61.81;99959.16;1662209;84;21097;-59
2021/05/29 07:35:59;;;;;;;10.35;9.10;;;;;;;25.50;61.92;99959.70;1665316;86;21110;-60
2021/05/29 07:38:25;;;;;;;13.60;9.35;;;;;;;25.49;62.00;99958.64;1650442;86;21613;-60
2021/05/29 07:40:52;;;;;;;10.78;9.63;;;;;;;25.45;62.05;99952.97;1648317;85;21535;-60
2021/05/29 07:43:19;;;;;;;11.53;9.63;;;;;;;25.43;62.07;99952.97;1659826;86;21085;-60
2021/05/29 07:45:47;;;;;;;10.00;8.95;;;;;;;25.40;62.08;99950.28;1659663;86;21075;-60
2021/05/29 07:48:14;;;;;;;10.95;9.85;;;;;;;25.38;62.12;99951.92;1659840;86;21198;-60
2021/05/29 07:53:34;;;;;;;10.93;9.78;;;;;;;25.35;62.18;99955.22;1665320;86;21049;-61
2021/05/29 07:56:14;;;;;;;11.73;9.83;;;;;;;25.34;62.21;99953.59;1648493;87;21101;-60
2021/05/29 07:58:41;;;;;;;10.35;9.25;;;;;;;25.33;62.25;99949.27;1686159;84;21149;-61
2021/05/29 08:01:09;;;;;;;9.93;9.03;;;;;;;25.35;62.24;99953.86;1693922;84;21100;-61
2021/05/29 08:03:37;;;;;;;12.20;10.23;;;;;;;25.37;62.20;99960.39;1693730;84;21650;-60
2021/05/29 08:06:09;;;;;;;11.25;10.05;;;;;;;25.38;62.21;99951.11;1690195;84;21053;-59
2021/05/29 08:08:32;;;;;;;11.68;10.48;;;;;;;25.39;62.13;99952.19;1673471;83;20989;-59
2021/05/29 08:11:00;;;;;;;12.03;10.70;;;;;;;25.44;62.00;99955.96;1668244;84;21085;-61
2021/05/29 08:13:27;;;;;;;12.70;10.58;;;;;;;25.47;61.86;99954.84;1671279;85;21304;-60
2021/05/29 08:15:54;;;;;;;11.83;10.63;;;;;;;25.52;61.88;99955.37;1668901;86;21116;-59
2021/05/29 08:18:21;;;;;;;12.90;11.60;;;;;;;25.55;61.74;99961.59;1663877;86;21685;-61
2021/05/29 08:20:49;;;;;;;12.23;10.60;;;;;;;25.57;61.65;99956.13;1669079;85;21121;-63
2021/05/29 08:23:15;;;;;;;15.83;14.33;;;;;;;25.62;61.54;99951.17;1646265;87;21013;-62
2021/05/29 08:25:42;;;;;;;14.10;10.63;;;;;;;25.67;61.36;99955.22;1646061;87;21107;-62
2021/05/29 08:28:08;;;;;;;12.33;11.03;;;;;;;25.72;61.03;99950.52;1652362;85;21180;-62
2021/05/29 08:30:35;;;;;;;14.65;13.22;;;;;;;25.79;60.84;99950.19;1675760;85;21137;-61
2021/05/29 08:33:02;;;;;;;18.30;16.50;;;;;;;25.84;60.53;99952.84;1663999;86;21064;-61
2021/05/29 08:35:29;;;;;;;13.32;11.22;;;;;;;25.91;60.27;99953.88;1715108;83;21038;-62
2021/05/29 08:37:56;;;;;;;16.32;14.73;;;;;;;25.97;59.88;99950.80;1715255;83;21168;-63
2021/05/29 08:40:24;;;;;;;28.60;25.85;;;;;;;26.00;59.69;99946.66;1714753;83;21582;-62
2021/05/29 08:42:50;;;;;;;17.00;15.35;;;;;;;26.01;59.70;99945.58;1713596;83;21512;-60
2021/05/29 08:45:18;;;;;;;13.55;12.20;;;;;;;26.01;59.61;99941.48;1698809;83;21110;-58
2021/05/29 08:47:49;;;;;;;18.32;16.60;;;;;;;26.00;59.35;99939.31;1718455;83;21322;-63
2021/05/29 08:50:17;;;;;;;23.77;21.50;;;;;;;26.04;59.29;99940.91;1718884;83;21100;-64
2021/05/29 08:52:43;;;;;;;20.88;18.95;;;;;;;26.08;59.21;99935.95;1719523;82;21235;-62
2021/05/29 08:55:15;;;;;;;12.95;11.70;;;;;;;26.16;58.95;99936.66;1719410;83;21109;-62
2021/05/29 08:57:43;;;;;;;10.25;9.25;;;;;;;26.24;58.70;99931.96;1719604;83;21093;-63
2021/05/29 09:00:31;;;;;;;11.40;10.30;;;;;;;26.31;58.17;99936.49;1719675;83;20970;-63
2021/05/29 09:03:08;;;;;;;9.60;8.60;;;;;;;26.37;57.89;99937.77;1599906;89;21173;-64
2021/05/29 09:05:53;;;;;;;10.50;9.13;;;;;;;26.40;57.59;99937.20;1599683;88;21125;-64
2021/05/29 09:08:21;;;;;;;12.30;11.10;;;;;;;26.42;57.30;99935.80;1605890;87;21645;-64
2021/05/29 09:10:52;;;;;;;18.20;16.40;;;;;;;26.49;57.35;99944.96;1601162;89;21141;-63
2021/05/29 09:13:26;;;;;;;9.10;7.72;;;;;;;26.55;57.34;99939.72;1587441;89;21025;-64
2021/05/29 09:16:05;;;;;;;7.53;6.72;;;;;;;26.60;56.99;99939.62;1586510;90;21112;-64
2021/05/29 09:18:38;;;;;;;9.05;8.15;;;;;;;26.64;56.50;99940.66;1587449;90;21139;-62
2021/05/29 09:21:30;;;;;;;;;;;;;;;26.69;56.31;99943.31;1589880;90;21128;-61
2021/05/29 09:24:13;;;;;;;7.25;6.55;;;;;;;26.70;56.02;99938.91;1594185;90;20870;-61
2021/05/29 09:26:53;;;;;;;8.45;7.45;;;;;;;26.68;56.21;99940.32;1594220;89;21049;-60
2021/05/29 09:29:29;;;;;;;10.53;9.43;;;;;;;26.64;56.37;99946.11;1616589;87;21162;-60
2021/05/29 09:32:03;;;;;;;10.63;9.08;;;;;;;26.63;56.48;99937.66;1622605;88;21511;-60
2021/05/29 09:34:54;;;;;;;11.00;9.88;;;;;;;26.64;56.51;99942.83;1618762;88;21016;-59
2021/05/29 09:37:27;;;;;;;10.98;9.93;;;;;;;26.65;56.42;99940.37;1608978;88;21013;-58
2021/05/29 09:39:57;;;;;;;11.05;9.10;;;;;;;26.69;56.42;99936.50;1622118;88;21101;-59
2021/05/29 09:42:36;;;;;;;10.85;8.58;;;;;;;26.72;56.44;99930.45;1586131;89;21072;-59
2021/05/29 09:45:26;;;;;;;9.45;8.55;;;;;;;26.74;56.17;99930.40;1609198;88;21176;-59
2021/05/29 09:48:19;;;;;;;9.58;8.68;;;;;;;26.78;56.00;99929.25;1600113;87;21117;-59
2021/05/29 09:51:10;;;;;;;13.68;11.88;;;;;;;26.80;56.09;99924.33;1625883;86;21121;-49
2021/05/29 09:53:40;;;;;;;14.15;12.23;;;;;;;26.81;55.82;99928.10;1625521;87;21057;-49
2021/05/29 09:56:08;;;;;;;12.10;10.03;;;;;;;26.74;55.16;99919.48;1625571;88;21030;-49
2021/05/29 09:59:04;;;;;;;14.75;13.25;;;;;;;26.69;54.58;99926.41;1603920;88;21099;-49
2021/05/29 10:01:51;;;;;;;15.85;8.90;;;;;;;26.59;54.13;99927.12;1625985;86;21450;-60
2021/05/29 10:07:12;;;;;;;17.17;9.18;;;;;;;26.43;50.84;99929.80;1676263;85;21081;-58
2021/05/29 10:09:40;;;;;;;13.25;9.80;;;;;;;26.31;50.46;99925.59;1678276;84;21003;-60
2021/05/29 10:12:08;;;;;;;8.25;7.45;;;;;;;26.29;49.89;99925.61;1689523;84;21633;-58
2021/05/29 10:14:35;;;;;;;11.03;8.53;;;;;;;26.27;48.86;99928.64;1688652;84;21053;-61
2021/05/29 10:17:10;;;;;;;11.12;9.73;;;;;;;26.26;48.98;99924.29;1678622;84;21174;-60
2021/05/29 10:19:40;;;;;;;13.48;9.98;;;;;;;26.30;49.37;99922.60;1685027;84;21006;-60
2021/05/29 10:22:13;;;;;;;12.78;11.22;;;;;;;26.37;49.31;99918.14;1687919;84;21109;-60
2021/05/29 10:24:40;;;;;;;14.18;10.00;;;;;;;26.46;49.07;99920.48;1705813;83;21058;-62
2021/05/29 10:27:12;;;;;;;11.15;9.90;;;;;;;26.51;49.46;99912.23;1678839;84;21634;-60
2021/05/29 10:29:39;;;;;;;12.90;10.65;;;;;;;26.62;48.94;99901.98;1685764;84;21017;-60
2021/05/29 10:32:16;;;;;;;12.47;9.85;;;;;;;26.73;48.22;99904.27;1665798;84;21673;-59
2021/05/29 10:34:59;;;;;;;12.90;9.38;;;;;;;26.80;48.10;99903.33;1688986;84;21065;-60
2021/05/29 10:37:35;;;;;;;12.90;9.75;;;;;;;26.99;47.42;99898.41;1682584;84;21062;-60
2021/05/29 10:40:21;;;;;;;10.50;9.40;;;;;;;27.22;46.20;99896.91;1683867;84;21129;-61
2021/05/29 10:43:11;;;;;;;11.10;9.13;;;;;;;27.82;45.48;99904.27;1681357;84;21282;-74
2021/05/29 10:45:55;;;;;;;17.75;8.30;;;;;;;28.97;42.49;99908.25;1666024;84;21097;-66
2021/05/29 10:48:24;;;;;;;10.53;7.83;;;;;;;31.24;37.87;99902.93;1669383;84;21732;-68
2021/05/29 10:51:08;;;;;;;10.93;7.72;;;;;;;33.25;33.84;99903.75;1675476;84;21204;-68
2021/05/29 10:53:54;;;;;;;8.93;7.75;;;;;;;34.62;31.67;99909.35;1645810;86;21081;-67
2021/05/29 10:56:27;;;;;;;10.68;7.45;;;;;;;35.89;28.75;99903.11;1670196;84;21627;-68
2021/05/29 10:59:15;;;;;;;8.80;6.72;;;;;;;36.65;27.84;99897.53;1685371;84;21145;-67
2021/05/29 11:01:48;;;;;;;9.60;7.22;;;;;;;37.27;26.60;99913.02;1671156;84;21162;-69
2021/05/29 11:04:22;;;;;;;;;;;;;;;37.98;25.34;99908.10;1669375;84;21568;-72
2021/05/29 11:06:56;;;;;;;9.08;6.25;;;;;;;38.54;24.27;99908.69;1664799;84;20368;-71
2021/05/29 11:09:30;;;;;;;;;;;;;;;39.04;23.53;99912.07;1691346;84;21066;-71
2021/05/29 11:12:03;;;;;;;11.57;5.78;;;;;;;39.61;23.10;99914.83;1677509;85;20229;-70
2021/05/29 11:14:54;;;;;;;7.62;6.28;;;;;;;40.23;22.27;99915.11;1679574;83;21113;-72
2021/05/29 11:17:26;;;;;;;8.80;6.75;;;;;;;40.88;21.50;99901.67;1680572;85;21031;-71
2021/05/29 11:20:14;;;;;;;7.50;6.53;;;;;;;40.99;21.04;99907.30;1680114;83;21070;-71
2021/05/29 11:22:46;;;;;;;8.85;7.22;;;;;;;40.98;20.93;99906.50;1678579;84;21006;-73
2021/05/29 11:25:16;;;;;;;10.10;7.33;;;;;;;39.86;22.03;99904.12;1680669;84;21165;-74
2021/05/29 11:27:45;;;;;;;13.20;7.65;;;;;;;37.73;24.04;99903.31;1680331;85;21662;-70
2021/05/29 11:30:26;;;;;;;8.55;7.65;;;;;;;35.79;26.40;99898.14;1680439;84;21046;-72
2021/05/29 11:35:47;;;;;;;10.53;7.72;;;;;;;32.50;31.34;99898.84;1677385;85;21074;-62
2021/05/29 11:38:32;;;;;;;9.03;7.53;;;;;;;31.17;33.81;99904.56;1665403;85;21063;-61
2021/05/29 11:41:11;;;;;;;8.80;7.37;;;;;;;29.91;36.16;99903.87;1678019;85;21117;-60
2021/05/29 11:43:53;;;;;;;10.05;7.80;;;;;;;28.92;38.50;99913.86;1677588;85;21439;-61
2021/05/29 11:46:28;;;;;;;8.23;6.50;;;;;;;28.13;40.12;99906.09;1672461;84;21049;-59
2021/05/29 11:49:01;;;;;;;;;;;;;;;27.51;41.94;99905.41;1663115;85;21160;-58
2021/05/29 11:51:34;;;;;;;9.48;6.40;;;;;;;27.52;42.63;99904.30;1673590;84;20218;-58